Time;durP1;ratioP1;P1;durP2;ratioP2;P2;SDS_P1;SDS_P2;PMS_P1;PMS_P2;Temp;Humidity;BMP_temperature;BMP_pressure;BME280_temperature;BME280_humidity;BME280_pressure;Samples;Min_cycle;Max_cycle;Signal;HPM_P1;HPM_P2
2021/06/17 00:00:34;;;;;;;8.88;7.80;;;22.80;99.90;;;;;;5093403;28;20230;-78
2021/06/17 00:03:02;;;;;;;9.20;8.35;;;22.90;99.90;;;;;;5093284;28;20230;-78
2021/06/17 00:05:31;;;;;;;8.52;7.63;;;22.80;99.90;;;;;;5093569;28;20222;-79
2021/06/17 00:07:58;;;;;;;9.32;7.90;;;22.70;99.90;;;;;;5093962;28;20286;-79
2021/06/17 00:10:29;;;;;;;8.52;7.63;;;22.70;99.90;;;;;;5093685;28;20277;-78
2021/06/17 00:12:58;;;;;;;9.20;8.25;;;22.70;99.90;;;;;;5092908;28;20223;-78
2021/06/17 00:15:28;;;;;;;11.20;8.18;;;22.60;99.90;;;;;;5093300;28;20273;-78
2021/06/17 00:17:57;;;;;;;8.93;8.13;;;22.60;99.90;;;;;;5093606;28;20221;-78
2021/06/17 00:20:24;;;;;;;10.50;8.50;;;22.60;99.90;;;;;;5093839;28;20198;-79
2021/06/17 00:22:52;;;;;;;9.23;8.00;;;22.60;99.90;;;;;;5093516;28;20289;-78
2021/06/17 00:25:19;;;;;;;8.80;7.93;;;22.60;99.90;;;;;;5093046;28;20191;-77
2021/06/17 00:27:46;;;;;;;10.20;8.05;;;22.50;99.90;;;;;;5092963;28;20594;-78
2021/06/17 00:30:14;;;;;;;10.65;8.02;;;22.40;99.90;;;;;;5092894;28;20233;-79
2021/06/17 00:32:42;;;;;;;10.77;8.50;;;22.40;99.90;;;;;;5093352;28;20222;-79
2021/06/17 00:35:11;;;;;;;9.35;8.35;;;22.30;99.90;;;;;;5093109;28;20460;-79
2021/06/17 00:37:39;;;;;;;8.85;7.45;;;22.40;99.90;;;;;;5092840;28;20620;-79
2021/06/17 00:40:08;;;;;;;9.50;7.88;;;22.40;99.90;;;;;;5092913;28;20218;-78
2021/06/17 00:42:36;;;;;;;10.10;8.00;;;22.50;99.90;;;;;;5092956;28;20603;-78
2021/06/17 00:45:05;;;;;;;8.25;7.45;;;22.40;99.90;;;;;;5093288;28;20194;-78
2021/06/17 00:47:32;;;;;;;9.35;8.05;;;22.50;99.90;;;;;;5093038;28;20285;-78
2021/06/17 00:50:00;;;;;;;9.35;7.47;;;22.50;99.90;;;;;;5092819;28;20221;-78
2021/06/17 00:52:28;;;;;;;9.40;7.70;;;22.50;99.90;;;;;;5096249;28;20294;-78
2021/06/17 00:54:58;;;;;;;10.60;7.88;;;22.50;99.90;;;;;;5097128;28;20191;-78
2021/06/17 00:57:25;;;;;;;8.75;7.85;;;22.40;99.90;;;;;;5097261;28;20198;-79
2021/06/17 00:59:52;;;;;;;9.32;8.23;;;22.50;99.90;;;;;;5097045;28;20315;-79
2021/06/17 01:02:19;;;;;;;10.55;8.35;;;22.50;99.90;;;;;;5097068;28;20286;-78
2021/06/17 01:04:47;;;;;;;10.68;8.40;;;22.40;99.90;;;;;;5096910;28;20199;-79
2021/06/17 01:07:24;;;;;;;10.70;8.48;;;22.40;99.90;;;;;;5097151;28;20559;-79
2021/06/17 01:10:03;;;;;;;12.30;8.40;;;22.50;99.90;;;;;;5096725;28;20550;-78
2021/06/17 01:12:41;;;;;;;11.52;8.02;;;22.40;99.90;;;;;;5096891;28;20202;-78
2021/06/17 01:15:11;;;;;;;11.50;7.90;;;22.40;99.90;;;;;;5096705;28;20688;-79
2021/06/17 01:17:42;;;;;;;10.98;8.70;;;22.30;99.90;;;;;;5096948;28;20277;-79
2021/06/17 01:20:14;;;;;;;11.25;8.63;;;22.30;99.90;;;;;;5082602;28;20194;-79
2021/06/17 01:22:51;;;;;;;10.35;8.50;;;22.30;99.90;;;;;;5096947;28;20194;-78
2021/06/17 01:25:37;;;;;;;12.23;9.48;;;22.20;99.90;;;;;;5091971;28;20238;-78
2021/06/17 01:28:11;;;;;;;10.82;9.73;;;22.10;99.90;;;;;;5090666;28;20289;-78
2021/06/17 01:30:48;;;;;;;12.80;8.95;;;22.00;99.90;;;;;;5097287;28;20201;-77
2021/06/17 01:33:15;;;;;;;11.80;8.57;;;22.10;99.90;;;;;;5096452;28;20195;-79
2021/06/17 01:35:45;;;;;;;11.27;9.63;;;22.10;99.90;;;;;;5096602;28;20272;-79
2021/06/17 01:38:23;;;;;;;12.57;9.43;;;22.00;99.90;;;;;;5096759;28;20225;-77
2021/06/17 01:40:51;;;;;;;10.68;9.57;;;22.00;99.90;;;;;;5096191;28;20290;-79
2021/06/17 01:43:21;;;;;;;10.73;9.63;;;22.00;99.90;;;;;;5096115;28;20553;-79
2021/06/17 01:45:50;;;;;;;11.68;9.80;;;21.80;99.90;;;;;;5096070;28;20779;-78
2021/06/17 01:48:17;;;;;;;12.18;9.55;;;21.80;99.90;;;;;;5095542;28;20216;-78
2021/06/17 01:50:46;;;;;;;12.80;9.30;;;21.90;99.90;;;;;;5095871;28;20282;-78
2021/06/17 01:53:15;;;;;;;11.57;10.03;;;21.80;99.90;;;;;;5096272;28;20191;-78
2021/06/17 01:55:44;;;;;;;13.13;9.20;;;21.80;99.90;;;;;;5095897;28;20258;-79
2021/06/17 01:58:14;;;;;;;12.90;9.73;;;21.80;99.90;;;;;;5095287;28;20305;-78
2021/06/17 02:00:44;;;;;;;12.10;9.82;;;21.80;99.90;;;;;;5095679;28;20207;-78
2021/06/17 02:03:13;;;;;;;11.45;9.90;;;21.80;99.90;;;;;;5094675;28;20197;-78
2021/06/17 02:05:40;;;;;;;11.20;9.95;;;21.70;99.90;;;;;;5096307;28;20278;-78
2021/06/17 02:08:08;;;;;;;12.38;9.73;;;21.60;99.90;;;;;;5095800;28;20191;-78
2021/06/17 02:10:37;;;;;;;11.33;9.53;;;21.60;99.90;;;;;;5096028;28;20214;-79
2021/06/17 02:13:06;;;;;;;10.97;9.40;;;21.70;99.90;;;;;;5095779;28;20222;-78
2021/06/17 02:15:33;;;;;;;11.97;9.30;;;21.70;99.90;;;;;;5096048;28;20187;-78
2021/06/17 02:18:02;;;;;;;10.25;9.10;;;21.80;99.90;;;;;;5095511;28;20235;-77
2021/06/17 02:20:29;;;;;;;10.23;9.00;;;21.80;99.90;;;;;;5095582;28;20614;-78
2021/06/17 02:23:02;;;;;;;9.77;8.33;;;21.70;99.90;;;;;;5095870;28;20277;-78
2021/06/17 02:25:29;;;;;;;10.32;8.90;;;21.70;99.90;;;;;;5081353;28;20201;-76
2021/06/17 02:28:00;;;;;;;11.27;8.73;;;21.70;99.90;;;;;;5095607;28;20206;-79
2021/06/17 02:30:31;;;;;;;9.30;8.27;;;21.70;99.90;;;;;;5095863;28;20660;-78
2021/06/17 02:33:03;;;;;;;8.82;8.02;;;21.80;99.90;;;;;;5084176;28;20238;-78
2021/06/17 02:35:31;;;;;;;8.90;8.00;;;21.60;99.90;;;;;;5094333;28;20248;-78
2021/06/17 02:38:01;;;;;;;9.97;8.07;;;21.50;99.90;;;;;;5094988;28;20684;-78
2021/06/17 02:40:30;;;;;;;15.10;8.48;;;21.60;99.90;;;;;;5095014;28;20311;-78
2021/06/17 02:42:58;;;;;;;13.73;8.67;;;21.50;99.90;;;;;;5095026;28;20687;-79
2021/06/17 02:45:29;;;;;;;12.45;8.73;;;21.60;99.90;;;;;;5094935;28;20281;-78
2021/06/17 02:47:56;;;;;;;10.37;8.80;;;21.60;99.90;;;;;;5095180;28;20295;-77
2021/06/17 02:50:24;;;;;;;10.10;8.73;;;21.60;99.90;;;;;;5095099;28;20603;-79
2021/06/17 02:52:51;;;;;;;13.37;9.03;;;21.40;99.90;;;;;;5094636;28;20234;-77
2021/06/17 02:55:19;;;;;;;20.87;9.67;;;21.40;99.90;;;;;;5097771;28;20190;-78
2021/06/17 02:57:58;;;;;;;12.07;9.10;;;21.30;99.90;;;;;;5115151;28;20198;-80
2021/06/17 03:00:28;;;;;;;13.20;9.33;;;21.40;99.90;;;;;;5115178;28;20317;-79
2021/06/17 03:03:04;;;;;;;10.57;8.80;;;21.30;99.90;;;;;;5115399;28;20280;-78
2021/06/17 03:05:36;;;;;;;13.83;9.17;;;21.20;99.90;;;;;;5115282;28;20640;-79
2021/06/17 03:08:11;;;;;;;11.53;9.13;;;21.20;99.90;;;;;;5115316;28;20281;-77
2021/06/17 03:10:40;;;;;;;10.97;9.07;;;21.10;99.90;;;;;;5114806;28;20281;-78
2021/06/17 03:13:09;;;;;;;15.67;9.13;;;21.10;99.90;;;;;;5115177;28;20197;-78
2021/06/17 03:15:40;;;;;;;17.43;9.33;;;21.10;99.90;;;;;;5083043;28;20572;-79
2021/06/17 03:18:08;;;;;;;13.60;8.57;;;21.00;99.90;;;;;;5103133;28;20195;-78
2021/06/17 03:20:40;;;;;;;12.20;8.50;;;20.90;99.90;;;;;;5112722;28;20214;-78
2021/06/17 03:23:13;;;;;;;12.80;7.47;;;21.00;99.90;;;;;;5114648;28;20196;-79
2021/06/17 03:25:41;;;;;;;11.47;7.57;;;21.00;99.90;;;;;;5114144;28;20217;-78
2021/06/17 03:28:10;;;;;;;12.00;6.87;;;21.00;99.90;;;;;;5114759;28;20198;-78
2021/06/17 03:30:38;;;;;;;11.80;8.03;;;21.00;99.90;;;;;;5114338;28;20693;-78
2021/06/17 03:33:06;;;;;;;8.27;7.37;;;21.00;99.90;;;;;;5114832;28;20298;-79
2021/06/17 03:35:34;;;;;;;11.50;6.83;;;21.10;99.90;;;;;;5114293;28;20202;-78
2021/06/17 03:38:04;;;;;;;10.30;6.77;;;21.30;99.90;;;;;;5114497;28;20648;-77
2021/06/17 03:40:32;;;;;;;7.13;6.43;;;21.30;99.90;;;;;;5114744;28;20313;-76
2021/06/17 03:43:00;;;;;;;8.33;6.47;;;21.40;99.90;;;;;;5086630;28;20198;-78
2021/06/17 03:45:29;;;;;;;9.50;5.93;;;21.50;99.90;;;;;;5114562;28;20639;-78
2021/06/17 03:47:56;;;;;;;10.37;6.00;;;21.50;99.90;;;;;;5114133;28;20563;-77
2021/06/17 03:50:26;;;;;;;8.68;5.88;;;21.50;99.90;;;;;;5114109;28;20233;-78
2021/06/17 03:52:56;;;;;;;11.40;6.47;;;21.60;99.90;;;;;;5100851;28;20286;-78
2021/06/17 03:55:25;;;;;;;9.65;6.07;;;21.60;99.90;;;;;;5095791;28;20195;-79
2021/06/17 03:57:57;;;;;;;6.75;4.53;;;21.80;99.90;;;;;;5096553;28;20231;-78
2021/06/17 04:00:25;;;;;;;7.82;5.78;;;22.00;99.90;;;;;;5094765;28;20206;-78
2021/06/17 04:02:54;;;;;;;7.63;5.32;;;22.10;99.90;;;;;;5095106;28;20197;-79
2021/06/17 04:05:21;;;;;;;8.55;5.60;;;22.20;99.90;;;;;;5095879;28;20197;-78
2021/06/17 04:07:51;;;;;;;10.27;5.90;;;22.30;99.90;;;;;;5095230;28;20194;-78
2021/06/17 04:10:20;;;;;;;9.43;4.82;;;22.40;99.90;;;;;;5092317;28;20226;-78
2021/06/17 04:12:50;;;;;;;5.75;4.45;;;22.60;99.90;;;;;;5094236;28;20206;-79
2021/06/17 04:15:18;;;;;;;8.02;4.78;;;22.70;99.90;;;;;;5094859;28;20205;-78
2021/06/17 04:17:51;;;;;;;11.52;5.22;;;22.80;99.90;;;;;;5093966;28;20191;-78
2021/06/17 04:20:24;;;;;;;12.20;4.90;;;22.90;99.90;;;;;;5093557;28;20206;-78
2021/06/17 04:22:54;;;;;;;8.57;4.13;;;23.10;99.90;;;;;;5095051;28;20214;-78
2021/06/17 04:25:22;;;;;;;12.02;4.45;;;23.30;99.90;;;;;;5096462;28;20689;-78
2021/06/17 04:27:55;;;;;;;11.98;5.07;;;23.40;99.90;;;;;;5094206;28;20194;-79
2021/06/17 04:30:25;;;;;;;5.95;4.00;;;23.70;99.90;;;;;;5095386;28;20216;-78
2021/06/17 04:32:52;;;;;;;6.05;4.40;;;23.90;99.90;;;;;;5093739;28;20201;-78
2021/06/17 04:35:22;;;;;;;7.45;4.05;;;24.20;99.90;;;;;;5093162;28;20222;-77
2021/06/17 04:37:49;;;;;;;8.27;4.00;;;24.30;99.90;;;;;;5092590;28;20281;-78
2021/06/17 04:40:17;;;;;;;6.70;4.10;;;24.50;99.90;;;;;;5095630;28;20301;-78
2021/06/17 04:42:44;;;;;;;8.82;4.07;;;24.80;99.90;;;;;;5095697;28;20289;-78
2021/06/17 04:45:13;;;;;;;15.10;4.22;;;25.20;99.90;;;;;;5092521;28;20273;-77
2021/06/17 04:47:48;;;;;;;5.75;3.70;;;25.50;99.90;;;;;;5099807;28;20277;-78
2021/06/17 04:50:16;;;;;;;10.35;4.05;;;25.70;99.90;;;;;;5094704;28;20282;-78
2021/06/17 04:53:08;;;;;;;8.10;4.00;;;26.00;99.90;;;;;;5107302;28;20186;-78
2021/06/17 04:55:42;;;;;;;6.22;3.38;;;26.00;99.90;;;;;;5090568;28;20625;-79
2021/06/17 04:58:09;;;;;;;6.50;3.35;;;26.40;99.90;;;;;;5091300;28;20533;-78
2021/06/17 05:00:37;;;;;;;5.07;3.47;;;26.50;99.90;;;;;;5092586;28;20630;-77
2021/06/17 05:03:05;;;;;;;5.22;3.65;;;26.70;99.90;;;;;;5096204;28;20191;-78
2021/06/17 05:05:32;;;;;;;8.27;3.63;;;26.70;99.90;;;;;;5093468;28;20269;-79
2021/06/17 05:10:50;;;;;;;5.07;3.25;;;26.10;99.90;;;;;;5092483;28;20663;-78
2021/06/17 05:13:19;;;;;;;8.95;3.35;;;26.00;99.90;;;;;;5092471;28;20191;-77
2021/06/17 05:15:47;;;;;;;6.75;3.63;;;25.80;99.90;;;;;;5089325;28;20655;-80
2021/06/17 05:18:15;;;;;;;26.92;4.22;;;25.60;99.90;;;;;;5091285;28;20198;-78
2021/06/17 05:20:42;;;;;;;7.25;3.20;;;25.50;99.90;;;;;;5093080;28;20577;-78
2021/06/17 05:23:11;;;;;;;4.65;3.20;;;25.40;99.90;;;;;;5092071;28;20248;-79
2021/06/17 05:25:38;;;;;;;5.25;3.22;;;25.40;99.90;;;;;;5087224;28;20229;-76
2021/06/17 05:28:06;;;;;;;14.35;3.58;;;25.30;99.90;;;;;;5085582;28;20226;-78
2021/06/17 05:30:34;;;;;;;7.93;3.38;;;25.40;99.90;;;;;;5091729;28;20199;-78
2021/06/17 05:33:02;;;;;;;10.95;3.72;;;25.50;99.90;;;;;;5083873;28;20197;-78
2021/06/17 05:35:29;;;;;;;10.32;3.80;;;25.60;99.90;;;;;;5083430;28;20641;-79
2021/06/17 05:37:56;;;;;;;23.48;4.40;;;25.70;99.90;;;;;;5090967;28;20614;-79
2021/06/17 05:43:45;;;;;;;7.10;4.25;;;26.70;99.90;;;;;;5088583;28;20232;-79
2021/06/17 05:46:12;;;;;;;10.25;3.67;;;26.90;99.90;;;;;;5089545;28;20648;-77
2021/06/17 05:48:41;;;;;;;13.05;3.78;;;26.90;99.90;;;;;;5088779;28;20282;-79
2021/06/17 05:51:08;;;;;;;12.18;3.75;;;26.90;99.90;;;;;;5086569;28;20290;-78
2021/06/17 05:53:34;;;;;;;8.77;3.50;;;26.90;99.90;;;;;;5069343;28;20228;-79
2021/06/17 05:56:02;;;;;;;9.90;3.80;;;26.60;99.90;;;;;;5054729;28;20698;-79
2021/06/17 05:58:29;;;;;;;14.85;3.67;;;26.40;99.90;;;;;;5043738;28;20295;-77
2021/06/17 06:00:56;;;;;;;5.20;3.40;;;26.10;99.90;;;;;;5049609;28;20650;-77
2021/06/17 06:03:23;;;;;;;7.60;3.40;;;26.20;99.90;;;;;;5062875;28;20282;-78
2021/06/17 06:05:51;;;;;;;6.57;2.97;;;26.40;99.90;;;;;;5068834;28;20212;-76
2021/06/17 06:08:18;;;;;;;10.07;3.08;;;26.50;99.90;;;;;;5058741;28;20230;-79
2021/06/17 06:10:45;;;;;;;21.30;3.15;;;26.50;99.90;;;;;;5074216;28;20287;-78
2021/06/17 06:13:12;;;;;;;6.35;3.08;;;26.50;99.90;;;;;;5066521;28;20287;-76
2021/06/17 06:15:39;;;;;;;10.70;2.72;;;26.80;99.90;;;;;;5029942;28;20284;-79
2021/06/17 06:18:08;;;;;;;11.02;2.70;;;27.40;99.90;;;;;;5054668;28;20280;-79
2021/06/17 06:20:35;;;;;;;7.95;2.63;;;27.80;99.90;;;;;;5047038;28;20213;-81
2021/06/17 06:23:04;;;;;;;10.80;2.80;;;28.30;99.90;;;;;;5054809;28;20200;-77
2021/06/17 06:25:31;;;;;;;16.20;2.50;;;28.70;99.90;;;;;;5054818;28;20549;-78
2021/06/17 06:27:59;;;;;;;11.63;2.65;;;28.70;99.90;;;;;;5055084;28;20626;-78
2021/06/17 06:30:26;;;;;;;9.13;2.85;;;28.80;99.90;;;;;;5054989;28;20215;-79
2021/06/17 06:32:53;;;;;;;9.65;2.60;;;29.70;99.90;;;;;;5054779;28;20713;-78
2021/06/17 06:35:20;;;;;;;21.25;2.70;;;30.40;99.90;;;;;;5055205;28;20223;-78
2021/06/17 06:37:49;;;;;;;4.70;2.42;;;30.20;99.90;;;;;;5055010;28;20283;-78
2021/06/17 06:40:20;;;;;;;4.97;2.40;;;30.10;99.90;;;;;;5054978;28;20220;-78
2021/06/17 06:42:47;;;;;;;5.25;2.63;;;29.60;99.90;;;;;;5055421;28;20682;-79
2021/06/17 06:45:15;;;;;;;11.75;2.95;;;29.00;99.90;;;;;;5054646;28;20196;-79
2021/06/17 06:47:42;;;;;;;12.30;2.60;;;28.60;99.90;;;;;;5054931;28;20193;-78
2021/06/17 06:50:10;;;;;;;9.57;2.70;;;28.30;99.90;;;;;;5054639;28;20704;-79
2021/06/17 06:52:37;;;;;;;6.93;2.60;;;27.90;99.90;;;;;;5054327;28;20749;-78
2021/06/17 06:55:06;;;;;;;3.75;2.35;;;27.70;99.90;;;;;;5054579;28;20196;-78
2021/06/17 06:57:34;;;;;;;9.52;2.50;;;27.70;99.90;;;;;;5054344;28;20192;-78
2021/06/17 07:00:01;;;;;;;7.18;2.65;;;27.70;99.90;;;;;;5054361;28;20331;-78
2021/06/17 07:02:28;;;;;;;7.40;3.00;;;27.80;99.90;;;;;;5054628;28;20291;-78
2021/06/17 07:04:55;;;;;;;8.00;2.78;;;27.70;99.90;;;;;;5053888;28;20291;-78
2021/06/17 07:07:22;;;;;;;12.23;2.75;;;27.90;99.90;;;;;;5049886;28;20203;-77
2021/06/17 07:09:51;;;;;;;3.95;2.42;;;28.10;99.90;;;;;;5072728;28;20199;-77
2021/06/17 07:12:18;;;;;;;7.05;2.75;;;28.30;99.90;;;;;;5074010;28;20601;-78
2021/06/17 07:14:46;;;;;;;10.00;2.67;;;28.40;99.90;;;;;;5073947;28;20669;-80
2021/06/17 07:17:14;;;;;;;6.13;2.60;;;28.60;99.90;;;;;;5073822;28;20231;-79
2021/06/17 07:19:41;;;;;;;3.97;2.40;;;28.50;99.90;;;;;;5074257;28;20207;-78
2021/06/17 07:22:08;;;;;;;7.70;2.63;;;28.30;99.90;;;;;;5074017;28;20515;-79
2021/06/17 07:24:35;;;;;;;9.20;2.65;;;27.40;99.90;;;;;;5073994;28;20230;-79
2021/06/17 07:27:03;;;;;;;10.05;2.50;;;27.30;99.90;;;;;;5073734;28;20318;-79
2021/06/17 07:29:30;;;;;;;10.07;2.80;;;27.40;99.90;;;;;;5073708;28;20229;-78
2021/06/17 07:31:58;;;;;;;6.00;2.85;;;27.50;99.90;;;;;;5074721;28;20206;-79
2021/06/17 07:34:25;;;;;;;13.80;3.30;;;27.20;99.90;;;;;;5068941;28;20228;-78
2021/06/17 07:36:53;;;;;;;5.90;2.80;;;27.30;99.90;;;;;;5054033;28;20224;-78
2021/06/17 07:39:20;;;;;;;4.07;2.60;;;27.60;99.90;;;;;;5053495;28;20192;-79
2021/06/17 07:41:47;;;;;;;8.02;3.20;;;27.70;99.90;;;;;;5045981;28;20236;-79
2021/06/17 07:44:14;;;;;;;11.00;2.88;;;27.80;99.90;;;;;;5048740;28;20287;-78
2021/06/17 07:46:41;;;;;;;7.95;3.25;;;27.70;99.90;;;;;;5052595;28;20224;-78
2021/06/17 07:49:09;;;;;;;16.13;3.30;;;27.30;99.90;;;;;;5053618;28;20199;-79
2021/06/17 07:51:37;;;;;;;12.85;2.65;;;27.00;99.90;;;;;;5055616;28;20218;-79
2021/06/17 07:54:04;;;;;;;6.70;2.72;;;27.00;99.90;;;;;;5053485;28;20204;-78
2021/06/17 07:56:33;;;;;;;8.25;2.80;;;26.90;99.90;;;;;;5053306;28;20697;-78
2021/06/17 07:59:00;;;;;;;5.45;2.58;;;26.70;99.90;;;;;;5053846;28;20289;-78
2021/06/17 08:01:27;;;;;;;9.48;2.80;;;26.80;99.90;;;;;;5054262;28;20311;-78
2021/06/17 08:03:55;;;;;;;8.63;3.20;;;27.10;99.90;;;;;;5038049;28;20522;-78
2021/06/17 08:06:24;;;;;;;5.75;2.55;;;27.50;99.90;;;;;;5053205;28;20582;-79
2021/06/17 08:08:51;;;;;;;7.50;2.75;;;28.00;99.90;;;;;;5052866;28;20654;-78
2021/06/17 08:11:17;;;;;;;5.22;2.67;;;29.00;99.90;;;;;;5053363;28;20196;-78
2021/06/17 08:13:44;;;;;;;10.70;3.10;;;29.20;99.90;;;;;;5052808;28;20765;-78
2021/06/17 08:16:11;;;;;;;16.80;3.15;;;29.30;99.90;;;;;;5053246;28;20325;-79
2021/06/17 08:18:38;;;;;;;4.28;2.65;;;29.30;99.90;;;;;;5053221;28;20199;-78
2021/06/17 08:21:05;;;;;;;8.93;2.92;;;29.20;99.90;;;;;;5052672;28;20230;-79
2021/06/17 08:23:33;;;;;;;11.88;3.85;;;29.00;99.90;;;;;;5052803;28;20231;-78
2021/06/17 08:26:00;;;;;;;14.43;3.50;;;29.30;99.90;;;;;;5052973;28;20189;-79
2021/06/17 08:28:27;;;;;;;13.55;3.55;;;29.40;99.90;;;;;;5049892;28;20287;-78
2021/06/17 08:30:55;;;;;;;11.90;3.50;;;29.20;99.90;;;;;;5052863;28;20564;-78
2021/06/17 08:33:22;;;;;;;9.85;3.42;;;28.90;99.90;;;;;;5053002;28;20273;-78
2021/06/17 08:35:51;;;;;;;7.28;3.13;;;29.30;99.90;;;;;;5052437;28;20564;-79
2021/06/17 08:38:19;;;;;;;10.10;3.60;;;29.50;99.90;;;;;;5052404;28;20228;-78
2021/06/17 08:40:47;;;;;;;12.77;2.80;;;29.90;99.90;;;;;;5053028;28;20255;-77
2021/06/17 08:43:15;;;;;;;6.18;2.70;;;30.20;99.90;;;;;;5053005;28;20196;-79
2021/06/17 08:45:42;;;;;;;6.97;2.90;;;30.50;99.90;;;;;;5052420;28;20220;-79
2021/06/17 08:48:09;;;;;;;16.88;3.03;;;31.30;99.90;;;;;;5052734;28;20549;-79
2021/06/17 08:50:36;;;;;;;14.32;3.05;;;31.90;99.90;;;;;;5052504;28;20303;-77
2021/06/17 08:53:04;;;;;;;5.20;2.50;;;31.60;99.90;;;;;;5054381;28;20721;-77
2021/06/17 08:55:31;;;;;;;6.03;2.70;;;31.40;99.90;;;;;;5053622;28;20188;-78
2021/06/17 08:58:00;;;;;;;10.50;2.90;;;32.10;99.90;;;;;;5054850;28;20192;-78
2021/06/17 09:00:32;;;;;;;10.20;2.90;;;32.70;99.90;;;;;;5056287;28;20635;-79
2021/06/17 09:03:01;;;;;;;10.00;2.95;;;34.50;99.90;;;;;;5051815;28;20216;-78
2021/06/17 09:05:29;;;;;;;14.13;2.90;;;36.30;99.90;;;;;;5054547;28;20405;-80
2021/06/17 09:07:57;;;;;;;8.02;3.15;;;38.10;99.90;;;;;;5056536;28;20192;-77
2021/06/17 09:10:24;;;;;;;4.50;2.60;;;39.20;99.90;;;;;;5051602;28;20275;-78
2021/06/17 09:12:53;;;;;;;8.07;2.80;;;40.50;99.90;;;;;;5070591;28;20207;-78
2021/06/17 09:15:40;;;;;;;9.35;2.60;;;41.40;99.90;;;;;;5074907;28;20538;-79
2021/06/17 09:18:19;;;;;;;6.82;2.63;;;40.90;99.90;;;;;;5072247;28;20193;-79
2021/06/17 09:20:51;;;;;;;6.93;2.90;;;41.00;99.90;;;;;;5076327;28;20234;-80
2021/06/17 09:23:20;;;;;;;7.93;2.78;;;40.80;99.90;;;;;;5065638;28;20218;-81
2021/06/17 09:25:48;;;;;;;12.25;2.88;;;41.40;99.90;;;;;;5069671;28;20200;-81
2021/06/17 09:28:15;;;;;;;5.70;2.70;;;42.40;99.90;;;;;;5091231;28;20194;-80
2021/06/17 09:30:43;;;;;;;4.75;2.20;;;42.10;99.90;;;;;;5087961;28;20260;-80
2021/06/17 09:33:14;;;;;;;7.20;2.58;;;41.40;99.90;;;;;;5043690;28;20196;-79
2021/06/17 09:35:49;;;;;;;8.85;2.85;;;41.00;99.90;;;;;;5057780;28;20261;-80
2021/06/17 09:38:17;;;;;;;10.45;2.83;;;41.60;99.90;;;;;;5040038;28;20196;-79
2021/06/17 09:40:50;;;;;;;11.05;2.90;;;42.30;99.90;;;;;;5039613;28;20318;-80
2021/06/17 09:43:23;;;;;;;12.95;2.38;;;41.30;99.90;;;;;;5046707;28;20200;-79
2021/06/17 09:45:59;;;;;;;6.55;2.63;;;39.30;99.90;;;;;;5058851;28;20223;-81
2021/06/17 09:48:35;;;;;;;13.13;2.70;;;39.20;99.90;;;;;;5055055;28;20234;-82
2021/06/17 09:51:30;;;;;;;10.63;2.75;;;38.30;99.90;;;;;;5047354;28;20691;-82
2021/06/17 09:54:17;;;;;;;8.68;2.67;;;37.50;99.90;;;;;;5043897;28;20196;-79
2021/06/17 09:56:48;;;;;;;7.75;2.70;;;37.20;99.90;;;;;;5050597;28;20627;-81
2021/06/17 09:59:31;;;;;;;8.93;2.67;;;36.80;99.90;;;;;;5053207;28;20690;-81
2021/06/17 10:01:59;;;;;;;5.50;2.10;;;36.80;99.90;;;;;;5067942;28;20318;-82
2021/06/17 10:04:26;;;;;;;8.25;2.15;;;36.50;99.90;;;;;;5076240;28;20202;-81
2021/06/17 10:06:54;;;;;;;9.27;1.80;;;36.40;99.90;;;;;;5075797;28;20282;-80
2021/06/17 10:09:21;;;;;;;6.60;1.98;;;35.70;99.90;;;;;;5076508;28;20697;-81
2021/06/17 10:11:48;;;;;;;7.88;2.20;;;35.10;99.90;;;;;;5075891;28;20192;-80
2021/06/17 10:14:15;;;;;;;5.50;1.70;;;34.30;99.90;;;;;;5063506;28;20279;-82
2021/06/17 10:16:43;;;;;;;6.18;1.80;;;33.90;99.90;;;;;;5051023;28;20265;-81
2021/06/17 10:19:12;;;;;;;9.00;2.03;;;34.70;99.90;;;;;;5058777;28;20187;-82
2021/06/17 10:21:39;;;;;;;4.10;1.95;;;35.40;99.90;;;;;;5061131;28;20666;-79
2021/06/17 10:24:17;;;;;;;4.93;2.00;;;36.00;99.90;;;;;;5074626;28;20692;-80
2021/06/17 10:26:48;;;;;;;7.97;2.00;;;37.10;99.90;;;;;;5063122;28;20733;-80
2021/06/17 10:29:36;;;;;;;5.40;2.08;;;37.70;99.90;;;;;;5062781;28;20260;-79
2021/06/17 10:32:04;;;;;;;8.48;2.30;;;38.00;99.90;;;;;;5048752;28;20251;-81
2021/06/17 10:34:46;;;;;;;7.18;2.20;;;37.90;99.90;;;;;;5055780;28;20280;-79
2021/06/17 10:37:30;;;;;;;7.40;2.05;;;38.00;99.90;;;;;;5054292;28;20615;-81
2021/06/17 10:40:03;;;;;;;10.45;2.25;;;38.40;99.90;;;;;;5044211;28;20191;-80
2021/06/17 10:42:38;;;;;;;7.00;2.30;;;38.80;99.90;;;;;;5056045;28;20230;-77
2021/06/17 10:45:14;;;;;;;6.35;2.20;;;38.70;99.90;;;;;;5051590;28;20185;-78
2021/06/17 10:48:04;;;;;;;8.88;2.78;;;38.30;99.90;;;;;;5052148;28;20236;-78
2021/06/17 10:51:06;;;;;;;8.60;2.17;;;37.90;99.90;;;;;;5051002;28;20331;-77
2021/06/17 10:53:52;;;;;;;8.80;2.10;;;37.90;99.90;;;;;;5050368;28;20640;-77
2021/06/17 10:56:22;;;;;;;3.70;1.80;;;37.70;99.90;;;;;;5047896;28;20192;-78
2021/06/17 10:58:58;;;;;;;12.05;2.13;;;38.00;99.90;;;;;;5055328;28;20207;-77
2021/06/17 11:01:40;;;;;;;23.75;2.75;;;38.60;99.90;;;;;;5046065;28;20207;-77
2021/06/17 11:04:19;;;;;;;8.20;2.10;;;38.70;99.90;;;;;;5038913;28;20208;-78
2021/06/17 11:07:14;;;;;;;7.57;2.05;;;38.10;99.90;;;;;;5045997;28;20286;-78
2021/06/17 11:10:02;;;;;;;8.55;2.20;;;37.60;99.90;;;;;;5048284;28;20182;-78
2021/06/17 11:12:57;;;;;;;5.40;2.10;;;37.00;99.90;;;;;;5054566;28;20184;-79
2021/06/17 11:15:47;;;;;;;7.20;2.65;;;36.80;99.90;;;;;;5043420;28;20193;-79
2021/06/17 11:18:15;;;;;;;7.03;2.33;;;37.20;99.90;;;;;;5046684;28;20654;-78
2021/06/17 11:20:45;;;;;;;8.30;2.47;;;37.50;99.90;;;;;;5046682;28;20199;-77
2021/06/17 11:23:17;;;;;;;8.05;2.50;;;37.50;99.90;;;;;;5038076;28;20208;-77
2021/06/17 11:25:48;;;;;;;6.38;2.40;;;37.60;99.90;;;;;;5052236;28;20638;-78
2021/06/17 11:28:16;;;;;;;7.25;2.17;;;37.60;99.90;;;;;;5042517;28;20181;-79
2021/06/17 11:30:56;;;;;;;10.02;2.10;;;37.90;99.90;;;;;;5047768;28;20280;-78
2021/06/17 11:33:50;;;;;;;4.05;2.17;;;37.80;99.90;;;;;;5038218;28;20177;-78
2021/06/17 11:36:19;;;;;;;7.88;2.00;;;37.90;99.90;;;;;;5036011;28;20287;-78
2021/06/17 11:38:50;;;;;;;4.43;2.03;;;37.70;99.90;;;;;;5039990;28;20192;-79
2021/06/17 11:41:20;;;;;;;4.53;2.10;;;37.60;99.90;;;;;;5046138;28;20294;-79
2021/06/17 11:44:08;;;;;;;7.78;2.60;;;37.00;99.90;;;;;;5053631;28;20591;-79
2021/06/17 11:46:38;;;;;;;5.20;2.40;;;37.30;99.90;;;;;;5038186;28;20205;-79
2021/06/17 11:49:07;;;;;;;10.00;2.38;;;37.60;99.90;;;;;;5048969;28;20208;-79
2021/06/17 11:51:46;;;;;;;7.30;2.45;;;38.20;99.90;;;;;;5043712;28;20205;-78
2021/06/17 11:54:24;;;;;;;5.60;2.63;;;38.20;99.90;;;;;;5048358;28;20284;-79
2021/06/17 11:56:53;;;;;;;5.40;2.50;;;37.50;99.90;;;;;;5038910;28;20215;-79
2021/06/17 11:59:22;;;;;;;7.03;2.38;;;37.40;99.90;;;;;;5036099;28;20296;-77
2021/06/17 12:02:09;;;;;;;5.95;2.30;;;37.10;99.90;;;;;;5043743;28;20248;-79
2021/06/17 12:04:52;;;;;;;8.80;2.67;;;36.70;99.90;;;;;;5043621;28;20267;-78
2021/06/17 12:07:24;;;;;;;7.43;2.83;;;36.50;99.90;;;;;;5045363;28;20184;-78
2021/06/17 12:09:52;;;;;;;6.15;2.53;;;36.30;99.90;;;;;;5033207;28;20272;-79
2021/06/17 12:12:22;;;;;;;5.13;2.40;;;36.50;99.90;;;;;;5035339;28;20197;-78
2021/06/17 12:14:51;;;;;;;5.43;2.50;;;36.60;99.90;;;;;;5040904;28;20188;-78
2021/06/17 12:17:29;;;;;;;9.00;2.70;;;36.10;99.90;;;;;;5050871;28;20192;-78
2021/06/17 12:19:56;;;;;;;7.60;2.88;;;36.00;99.90;;;;;;5042016;28;20658;-78
2021/06/17 12:22:23;;;;;;;4.38;2.45;;;36.40;99.90;;;;;;5041151;28;20675;-78
2021/06/17 12:24:50;;;;;;;5.97;3.13;;;36.30;99.90;;;;;;5044626;28;20239;-78
2021/06/17 12:27:19;;;;;;;3.20;2.20;;;36.70;99.90;;;;;;5045998;28;20268;-79
2021/06/17 12:29:47;;;;;;;7.18;2.60;;;36.90;99.90;;;;;;5046396;28;20189;-78
2021/06/17 12:32:14;;;;;;;6.15;2.42;;;36.60;99.90;;;;;;5036129;28;20197;-79
2021/06/17 12:34:43;;;;;;;6.82;2.28;;;36.90;99.90;;;;;;5049886;28;20201;-78
2021/06/17 12:37:12;;;;;;;4.38;2.30;;;37.20;99.90;;;;;;5054400;28;20194;-78
2021/06/17 12:39:40;;;;;;;6.32;2.15;;;37.30;99.90;;;;;;5053986;28;20211;-79
2021/06/17 12:42:12;;;;;;;6.75;2.35;;;36.60;99.90;;;;;;5038620;28;21563;-77
2021/06/17 12:44:42;;;;;;;6.20;2.70;;;36.30;99.90;;;;;;5054641;28;20239;-79
2021/06/17 12:47:16;;;;;;;8.35;2.15;;;36.00;99.90;;;;;;5051616;28;20203;-78
2021/06/17 12:52:30;;;;;;;5.32;2.13;;;35.40;99.90;;;;;;5051506;28;20281;-78
2021/06/17 12:54:58;;;;;;;6.35;2.33;;;35.80;99.90;;;;;;5047096;28;20717;-79
2021/06/17 12:57:26;;;;;;;5.55;2.38;;;36.10;99.90;;;;;;5051797;28;20690;-77
2021/06/17 12:59:56;;;;;;;3.38;2.20;;;36.70;99.90;;;;;;5048790;28;20338;-77
2021/06/17 13:02:44;;;;;;;2.55;1.73;;;36.80;99.90;;;;;;5042649;28;20315;-78
2021/06/17 13:05:14;;;;;;;6.25;2.58;;;36.80;99.90;;;;;;5033263;28;20624;-77
2021/06/17 13:07:58;;;;;;;4.45;2.38;;;36.40;99.90;;;;;;5048389;28;20189;-77